Time;durP1;ratioP1;P1;durP2;ratioP2;P2;SDS_P1;SDS_P2;PMS_P1;PMS_P2;Temp;Humidity;BMP_temperature;BMP_pressure;BME280_temperature;BME280_humidity;BME280_pressure;Samples;Min_cycle;Max_cycle;Signal;HPM_P1;HPM_P2
2021/11/16 00:01:49;;;;;;;29.77;20.60;;;7.40;97.50;;;;;;5053241;28;20045;-72
2021/11/16 00:04:15;;;;;;;23.00;19.45;;;7.40;97.50;;;;;;5053455;28;20036;-71
2021/11/16 00:06:43;;;;;;;26.25;21.10;;;7.40;97.70;;;;;;5053827;28;20040;-71
2021/11/16 00:09:09;;;;;;;22.90;20.30;;;7.40;97.90;;;;;;5052673;28;20040;-71
2021/11/16 00:11:35;;;;;;;27.23;20.65;;;7.40;97.90;;;;;;5053359;28;20052;-71
2021/11/16 00:14:02;;;;;;;21.88;19.75;;;7.40;97.90;;;;;;5052027;28;20043;-72
2021/11/16 00:16:28;;;;;;;26.05;21.13;;;7.40;98.10;;;;;;5052238;28;20076;-72
2021/11/16 00:18:59;;;;;;;25.23;21.83;;;7.40;97.90;;;;;;5053365;28;20033;-71
2021/11/16 00:21:26;;;;;;;;;;;7.40;98.10;;;;;;5053382;28;20040;-74
2021/11/16 00:23:56;;;;;;;23.10;20.75;;;7.40;98.00;;;;;;5052658;28;19908;-72
2021/11/16 00:26:24;;;;;;;25.67;20.42;;;7.40;98.10;;;;;;5053172;28;20036;-71
2021/11/16 00:28:51;;;;;;;24.60;19.15;;;7.40;97.90;;;;;;5052146;28;20053;-71
2021/11/16 00:31:18;;;;;;;24.17;21.58;;;7.40;98.00;;;;;;5053275;28;20037;-71
2021/11/16 00:33:45;;;;;;;25.92;21.42;;;7.40;98.10;;;;;;5052686;28;20040;-71
2021/11/16 00:36:11;;;;;;;23.27;20.77;;;7.40;98.00;;;;;;5066316;28;20039;-71
2021/11/16 00:38:39;;;;;;;26.30;20.25;;;7.40;98.10;;;;;;5062471;28;20062;-71
2021/11/16 00:41:06;;;;;;;24.73;21.33;;;7.40;98.10;;;;;;5066950;28;20028;-71
2021/11/16 00:43:33;;;;;;;28.77;20.30;;;7.40;98.10;;;;;;5052313;28;20025;-71
2021/11/16 00:45:59;;;;;;;31.88;20.33;;;7.40;98.10;;;;;;5065806;28;20032;-71
2021/11/16 00:48:25;;;;;;;24.17;21.38;;;7.40;98.20;;;;;;5058096;28;20048;-71
2021/11/16 00:50:58;;;;;;;22.02;19.58;;;7.30;98.40;;;;;;5052319;28;20025;-72
2021/11/16 00:53:29;;;;;;;28.70;20.58;;;7.30;98.50;;;;;;5052530;28;20025;-71
2021/11/16 00:55:56;;;;;;;24.88;21.17;;;7.30;98.70;;;;;;5052146;28;20390;-71
2021/11/16 00:58:22;;;;;;;22.50;19.52;;;7.30;98.60;;;;;;5052252;28;20032;-71
2021/11/16 01:00:50;;;;;;;24.23;21.25;;;7.30;98.60;;;;;;5052103;28;20036;-71
2021/11/16 01:03:18;;;;;;;26.88;21.35;;;7.40;98.30;;;;;;5053120;28;20029;-71
2021/11/16 01:05:44;;;;;;;26.48;20.77;;;7.40;98.40;;;;;;5052755;28;20033;-71
2021/11/16 01:08:12;;;;;;;34.70;20.65;;;7.30;98.40;;;;;;5051636;28;20051;-71
2021/11/16 01:10:41;;;;;;;23.67;21.17;;;7.30;98.40;;;;;;5051963;28;20044;-71
2021/11/16 01:13:08;;;;;;;26.63;20.88;;;7.40;98.60;;;;;;5051688;28;20390;-73
2021/11/16 01:15:37;;;;;;;26.15;21.02;;;7.40;98.60;;;;;;5051867;28;20033;-71
2021/11/16 01:18:04;;;;;;;32.22;22.10;;;7.40;98.60;;;;;;5051846;28;20041;-71
2021/11/16 01:20:31;;;;;;;29.95;21.88;;;7.30;98.40;;;;;;5061495;28;20051;-71
2021/11/16 01:22:59;;;;;;;25.23;21.73;;;7.30;98.50;;;;;;5063619;28;20029;-71
2021/11/16 01:25:26;;;;;;;27.60;21.17;;;7.30;98.60;;;;;;5052050;28;20036;-71
2021/11/16 01:28:00;;;;;;;21.55;19.40;;;7.40;97.90;;;;;;5051824;28;20072;-71
2021/11/16 01:30:27;;;;;;;22.80;20.40;;;7.40;98.10;;;;;;5060684;28;20043;-71
2021/11/16 01:33:07;;;;;;;24.65;20.48;;;7.30;98.10;;;;;;5060316;28;20040;-71
2021/11/16 01:35:36;;;;;;;21.30;19.00;;;7.30;98.20;;;;;;5052094;28;20043;-71
2021/11/16 01:38:04;;;;;;;23.13;19.58;;;7.30;98.40;;;;;;5051494;28;20044;-70
2021/11/16 01:40:31;;;;;;;29.02;21.80;;;7.30;98.40;;;;;;5051805;28;20056;-70
2021/11/16 01:42:59;;;;;;;22.90;20.25;;;7.30;98.40;;;;;;5051477;28;20088;-70
2021/11/16 01:45:26;;;;;;;24.25;20.13;;;7.30;98.10;;;;;;5051999;28;20063;-70
2021/11/16 01:47:53;;;;;;;26.33;21.08;;;7.30;98.30;;;;;;5051495;28;20047;-70
2021/11/16 01:50:22;;;;;;;25.08;20.35;;;7.30;97.80;;;;;;5051300;28;20037;-70
2021/11/16 01:52:50;;;;;;;30.10;20.02;;;7.30;97.70;;;;;;5050944;28;20037;-72
2021/11/16 01:55:18;;;;;;;24.05;20.73;;;7.30;97.70;;;;;;5051775;28;20040;-70
2021/11/16 01:57:45;;;;;;;24.45;20.67;;;7.30;97.90;;;;;;5051910;28;20045;-70
2021/11/16 02:00:16;;;;;;;26.67;21.75;;;7.30;98.00;;;;;;5051242;28;20044;-72
2021/11/16 02:02:43;;;;;;;22.98;20.25;;;7.30;98.10;;;;;;5051742;28;20032;-70
2021/11/16 02:05:11;;;;;;;26.20;20.77;;;7.30;98.20;;;;;;5051463;28;20397;-70
2021/11/16 02:07:41;;;;;;;26.27;19.52;;;7.30;98.50;;;;;;5033249;28;20049;-70
2021/11/16 02:10:07;;;;;;;25.57;21.43;;;7.20;98.60;;;;;;5051137;28;20217;-70
2021/11/16 02:12:34;;;;;;;23.92;20.95;;;7.20;98.90;;;;;;5051471;28;20287;-70
2021/11/16 02:15:00;;;;;;;27.90;20.85;;;7.20;99.20;;;;;;5050739;28;20033;-70
2021/11/16 02:17:26;;;;;;;20.88;18.77;;;7.20;99.30;;;;;;5051340;28;20041;-70
2021/11/16 02:19:53;;;;;;;23.75;21.30;;;7.20;99.30;;;;;;5051042;28;20466;-71
2021/11/16 02:22:19;;;;;;;25.88;21.77;;;7.20;99.80;;;;;;5051455;28;20025;-71
2021/11/16 02:24:46;;;;;;;23.77;19.88;;;7.20;99.60;;;;;;5051564;28;20025;-70
2021/11/16 02:27:12;;;;;;;26.85;20.92;;;7.20;99.70;;;;;;5051373;28;20052;-70
2021/11/16 02:29:39;;;;;;;24.35;20.50;;;7.20;99.60;;;;;;5055106;28;20049;-70
2021/11/16 02:32:05;;;;;;;24.98;19.77;;;7.20;99.60;;;;;;5054560;28;20037;-71
2021/11/16 02:34:32;;;;;;;23.65;19.15;;;7.20;99.60;;;;;;5065701;28;20513;-70
2021/11/16 02:36:58;;;;;;;32.35;22.20;;;7.20;99.40;;;;;;5054536;28;20037;-70
2021/11/16 02:39:24;;;;;;;23.98;20.08;;;7.20;99.20;;;;;;5073372;28;20029;-71
2021/11/16 02:41:52;;;;;;;24.17;20.83;;;7.20;99.00;;;;;;5055196;28;20059;-70
2021/11/16 02:44:20;;;;;;;26.50;22.42;;;7.20;99.10;;;;;;5055181;28;20029;-70
2021/11/16 02:46:47;;;;;;;28.83;21.02;;;7.20;99.00;;;;;;5054448;28;20033;-70
2021/11/16 02:49:15;;;;;;;26.33;22.95;;;7.20;99.00;;;;;;5054985;28;20477;-71
2021/11/16 02:51:42;;;;;;;26.05;20.77;;;7.20;98.90;;;;;;5074384;28;20118;-70
2021/11/16 02:54:27;;;;;;;24.92;21.10;;;7.20;98.60;;;;;;5056986;28;20036;-71
2021/11/16 02:56:53;;;;;;;24.25;20.17;;;7.20;98.30;;;;;;5054342;28;20521;-70
2021/11/16 02:59:20;;;;;;;23.00;20.52;;;7.20;98.40;;;;;;5054507;28;20470;-70
2021/11/16 03:01:46;;;;;;;23.83;21.15;;;7.20;98.40;;;;;;5054697;28;20037;-70
2021/11/16 03:04:23;;;;;;;26.88;20.15;;;7.20;98.40;;;;;;5054863;28;20032;-70
2021/11/16 03:06:49;;;;;;;25.13;19.23;;;7.20;98.50;;;;;;5054523;28;20037;-71
2021/11/16 03:09:16;;;;;;;29.02;19.83;;;7.20;98.90;;;;;;5046387;28;20047;-71
2021/11/16 03:11:42;;;;;;;26.95;20.38;;;7.20;99.30;;;;;;5055007;28;20037;-72
2021/11/16 03:14:09;;;;;;;23.70;20.45;;;7.20;99.40;;;;;;5053835;28;20025;-70
2021/11/16 03:16:35;;;;;;;23.75;20.35;;;7.10;99.60;;;;;;5054340;28;20037;-70
2021/11/16 03:19:01;;;;;;;26.75;19.85;;;7.20;99.70;;;;;;5053978;28;20032;-70
2021/11/16 03:21:27;;;;;;;23.15;19.63;;;7.20;99.80;;;;;;5054150;28;20048;-70
2021/11/16 03:23:56;;;;;;;23.30;19.92;;;7.10;99.90;;;;;;5053700;28;20032;-70
2021/11/16 03:26:25;;;;;;;27.73;21.80;;;7.10;99.90;;;;;;5054804;28;20033;-71
2021/11/16 03:28:52;;;;;;;26.23;19.83;;;7.10;99.90;;;;;;5054229;28;20467;-71
2021/11/16 03:33:54;;;;;;;23.92;20.00;;;7.10;99.90;;;;;;5054091;28;20032;-71
2021/11/16 03:36:22;;;;;;;23.27;20.17;;;7.00;99.90;;;;;;5053691;28;20048;-70
2021/11/16 03:38:49;;;;;;;23.00;20.58;;;7.10;99.90;;;;;;5050811;28;20374;-70
2021/11/16 03:41:16;;;;;;;29.92;21.77;;;7.10;99.90;;;;;;5058331;28;20493;-70
2021/11/16 03:43:43;;;;;;;29.30;22.48;;;7.10;99.90;;;;;;5053847;28;20037;-70
2021/11/16 03:46:10;;;;;;;24.20;21.15;;;7.10;99.90;;;;;;5053513;28;20032;-70
2021/11/16 03:48:37;;;;;;;30.08;21.02;;;7.00;99.80;;;;;;5054006;28;20040;-70
2021/11/16 03:51:03;;;;;;;25.33;20.15;;;7.10;99.90;;;;;;5053113;28;20029;-71
2021/11/16 03:53:30;;;;;;;21.13;19.02;;;7.10;99.90;;;;;;5053849;28;20036;-70
2021/11/16 03:55:56;;;;;;;21.58;19.30;;;7.00;99.90;;;;;;5053258;28;20040;-71
2021/11/16 03:58:25;;;;;;;20.55;18.52;;;7.00;99.90;;;;;;5053825;28;20037;-70
2021/11/16 04:00:57;;;;;;;27.27;20.25;;;7.00;99.90;;;;;;5053206;28;20048;-71
2021/11/16 04:03:26;;;;;;;22.85;20.60;;;7.00;99.90;;;;;;5063293;28;20040;-70
2021/11/16 04:05:53;;;;;;;26.13;21.23;;;7.00;99.90;;;;;;5059601;28;20037;-71
2021/11/16 04:08:20;;;;;;;30.27;23.35;;;7.00;99.90;;;;;;5070140;28;20621;-70
2021/11/16 04:10:47;;;;;;;20.95;18.73;;;7.00;99.90;;;;;;5053597;28;20032;-71
2021/11/16 04:13:14;;;;;;;28.67;21.98;;;7.00;99.90;;;;;;5052917;28;20036;-70
2021/11/16 04:15:40;;;;;;;27.48;21.42;;;7.00;99.90;;;;;;5063403;28;20047;-70
2021/11/16 04:18:07;;;;;;;30.38;21.73;;;7.00;99.90;;;;;;5062608;28;20037;-70
2021/11/16 04:20:37;;;;;;;24.35;20.50;;;7.00;99.90;;;;;;5053256;28;20033;-70
2021/11/16 04:23:06;;;;;;;27.58;22.25;;;7.00;99.90;;;;;;5052931;28;20037;-70
2021/11/16 04:25:34;;;;;;;26.00;21.25;;;7.00;99.90;;;;;;5053181;28;20024;-70
2021/11/16 04:28:01;;;;;;;26.13;22.05;;;6.90;99.90;;;;;;5052465;28;20049;-70
2021/11/16 04:30:29;;;;;;;28.10;22.00;;;7.00;99.90;;;;;;5053268;28;20033;-70
2021/11/16 04:32:56;;;;;;;24.85;21.38;;;7.00;99.90;;;;;;5052159;28;20037;-71
2021/11/16 04:35:24;;;;;;;28.77;20.95;;;6.90;99.90;;;;;;5053228;28;20037;-70
2021/11/16 04:37:53;;;;;;;27.88;21.15;;;6.90;99.90;;;;;;5052445;28;20029;-71
2021/11/16 04:40:26;;;;;;;25.05;21.05;;;6.90;99.90;;;;;;5052841;28;20044;-70
2021/11/16 04:42:55;;;;;;;25.05;21.38;;;6.90;99.90;;;;;;5052411;28;20044;-71
2021/11/16 04:45:24;;;;;;;26.42;20.65;;;6.90;99.90;;;;;;5055897;28;20474;-70
2021/11/16 05:03:51;;;;;;;26.60;22.70;;;6.80;99.90;;;;;;5052090;28;20044;-71
2021/11/16 05:06:18;;;;;;;28.88;22.20;;;6.80;99.90;;;;;;5052164;28;20496;-71
2021/11/16 05:08:46;;;;;;;24.52;21.98;;;6.80;99.90;;;;;;5051771;28;20048;-70
2021/11/16 05:11:13;;;;;;;27.25;23.30;;;6.80;99.90;;;;;;5051733;28;20049;-73
2021/11/16 05:13:43;;;;;;;35.05;24.33;;;6.80;99.90;;;;;;5052688;28;20025;-71
2021/11/16 05:16:11;;;;;;;30.30;23.38;;;6.80;99.90;;;;;;5052325;28;20032;-71
2021/11/16 05:18:39;;;;;;;31.67;24.27;;;6.80;99.90;;;;;;5052147;28;20462;-72
2021/11/16 05:21:06;;;;;;;28.40;23.73;;;6.80;99.90;;;;;;5051839;28;20044;-71
2021/11/16 05:23:40;;;;;;;39.05;25.23;;;6.80;99.90;;;;;;5052012;28;20040;-71
2021/11/16 05:26:06;;;;;;;28.30;25.20;;;6.80;99.90;;;;;;5068759;28;20461;-71
2021/11/16 05:28:33;;;;;;;26.95;23.00;;;6.80;99.90;;;;;;5054516;28;20037;-71
2021/11/16 05:31:00;;;;;;;41.78;24.48;;;6.80;99.90;;;;;;5051377;28;20037;-71
2021/11/16 05:33:27;;;;;;;26.77;22.92;;;6.80;99.90;;;;;;5052010;28;20029;-71
2021/11/16 05:35:59;;;;;;;24.70;22.23;;;6.80;99.90;;;;;;5050506;28;20037;-71
2021/11/16 05:38:31;;;;;;;25.95;23.30;;;6.80;99.90;;;;;;5061720;28;20470;-71
2021/11/16 05:40:58;;;;;;;29.42;24.83;;;6.80;99.90;;;;;;5063643;28;20040;-72
2021/11/16 05:43:25;;;;;;;26.13;23.17;;;6.80;99.90;;;;;;5050977;28;20041;-71
2021/11/16 05:45:52;;;;;;;66.25;60.70;;;6.70;99.90;;;;;;5051736;28;20043;-71
2021/11/16 05:48:21;;;;;;;33.83;30.13;;;6.70;99.90;;;;;;5051328;28;20036;-71
2021/11/16 05:50:48;;;;;;;27.73;23.15;;;6.80;99.90;;;;;;5052134;28;20037;-71
2021/11/16 05:53:15;;;;;;;33.88;24.13;;;6.70;99.90;;;;;;5051417;28;20036;-71
2021/11/16 05:55:47;;;;;;;30.67;23.58;;;6.80;99.90;;;;;;5051754;28;20033;-71
2021/11/16 05:58:18;;;;;;;24.55;21.92;;;6.70;99.90;;;;;;5050960;28;20044;-72
2021/11/16 06:00:45;;;;;;;27.33;24.40;;;6.70;99.90;;;;;;5051824;28;20041;-71
2021/11/16 06:03:11;;;;;;;28.00;24.98;;;6.70;99.90;;;;;;5054623;28;20037;-71
2021/11/16 06:05:37;;;;;;;27.02;24.02;;;6.70;99.90;;;;;;5055818;28;20029;-71
2021/11/16 06:08:05;;;;;;;30.05;24.20;;;6.70;99.90;;;;;;5055409;28;20033;-71
2021/11/16 06:10:31;;;;;;;28.17;23.85;;;6.70;99.90;;;;;;5055501;28;20032;-71
2021/11/16 06:12:57;;;;;;;28.23;25.17;;;6.70;99.90;;;;;;5068897;28;20032;-72
2021/11/16 06:15:24;;;;;;;27.98;24.83;;;6.70;99.90;;;;;;5055732;28;20382;-73
2021/11/16 06:17:50;;;;;;;24.20;21.73;;;6.70;99.90;;;;;;5073564;28;20056;-71
2021/11/16 06:20:19;;;;;;;26.58;23.50;;;6.70;99.90;;;;;;5070489;28;20036;-71
2021/11/16 06:22:46;;;;;;;25.70;22.85;;;6.70;99.90;;;;;;5055598;28;20032;-72
2021/11/16 06:25:12;;;;;;;25.23;22.67;;;6.70;99.90;;;;;;5061355;28;20630;-71
2021/11/16 06:27:39;;;;;;;26.10;23.02;;;6.70;99.90;;;;;;5054492;28;20454;-71
2021/11/16 06:30:06;;;;;;;30.33;24.73;;;6.70;99.90;;;;;;5054694;28;20037;-71
2021/11/16 06:32:32;;;;;;;24.88;22.13;;;6.70;99.90;;;;;;5037448;28;20043;-71
2021/11/16 06:34:59;;;;;;;25.27;22.63;;;6.70;99.90;;;;;;5055076;28;20036;-71
2021/11/16 06:37:25;;;;;;;34.95;24.55;;;6.60;99.90;;;;;;5054499;28;20045;-71
2021/11/16 06:39:52;;;;;;;30.42;23.17;;;6.70;99.90;;;;;;5054677;28;20036;-76
2021/11/16 06:42:18;;;;;;;29.95;24.33;;;6.60;99.90;;;;;;5055145;28;20033;-70
2021/11/16 06:44:44;;;;;;;30.23;23.17;;;6.60;99.90;;;;;;5054361;28;20037;-72
2021/11/16 06:47:13;;;;;;;26.70;22.80;;;6.60;99.90;;;;;;5054358;28;20042;-72
2021/11/16 06:49:51;;;;;;;26.90;22.98;;;6.60;99.90;;;;;;5054690;28;20029;-72
2021/11/16 06:52:19;;;;;;;26.35;23.70;;;6.60;99.90;;;;;;5054348;28;20471;-72
2021/11/16 06:54:45;;;;;;;32.35;24.27;;;6.60;99.90;;;;;;5054889;28;20033;-71
2021/11/16 06:57:12;;;;;;;25.73;23.17;;;6.60;99.90;;;;;;5054140;28;20036;-71
2021/11/16 06:59:39;;;;;;;26.55;22.13;;;6.60;99.90;;;;;;5055489;28;20037;-74
2021/11/16 07:02:05;;;;;;;26.35;22.23;;;6.60;99.90;;;;;;5053863;28;20033;-71
2021/11/16 07:04:39;;;;;;;23.98;21.02;;;6.60;99.90;;;;;;5054501;28;20362;-73
2021/11/16 07:07:06;;;;;;;24.75;21.90;;;6.60;99.90;;;;;;5054311;28;20037;-71
2021/11/16 07:09:39;;;;;;;30.58;22.75;;;6.60;99.90;;;;;;5054715;28;20047;-71
2021/11/16 07:12:12;;;;;;;27.65;21.95;;;6.60;99.90;;;;;;5053927;28;20033;-71
2021/11/16 07:14:39;;;;;;;29.95;24.73;;;6.60;99.90;;;;;;5064471;28;20032;-71
2021/11/16 07:17:08;;;;;;;25.00;22.20;;;6.70;99.90;;;;;;5053392;28;20033;-71
2021/11/16 07:19:36;;;;;;;26.33;23.05;;;6.70;99.90;;;;;;5054407;28;20029;-71
2021/11/16 07:22:26;;;;;;;27.50;22.48;;;6.70;99.90;;;;;;5053492;28;20036;-71
2021/11/16 07:24:56;;;;;;;25.20;22.55;;;6.60;99.90;;;;;;5054227;28;20033;-78
2021/11/16 07:27:41;;;;;;;26.25;23.13;;;6.70;99.90;;;;;;5054125;28;20040;-71
2021/11/16 07:30:23;;;;;;;27.25;22.80;;;6.70;99.90;;;;;;5072570;28;20049;-73
2021/11/16 07:32:59;;;;;;;24.75;22.20;;;6.70;99.90;;;;;;5054145;28;20497;-73
2021/11/16 07:35:32;;;;;;;25.02;22.10;;;6.70;99.90;;;;;;5073110;28;20040;-73
2021/11/16 07:38:02;;;;;;;26.35;23.55;;;6.70;99.90;;;;;;5072825;28;20501;-74
2021/11/16 07:40:29;;;;;;;26.15;23.33;;;6.70;99.90;;;;;;5065040;28;20035;-73
2021/11/16 07:42:58;;;;;;;29.65;22.98;;;6.70;99.90;;;;;;5072825;28;20028;-73
2021/11/16 07:45:40;;;;;;;26.38;23.75;;;6.60;99.90;;;;;;5055426;28;20059;-73
2021/11/16 07:48:12;;;;;;;27.10;23.65;;;6.70;99.90;;;;;;5073097;28;20474;-74
2021/11/16 07:50:53;;;;;;;28.23;22.63;;;6.60;99.90;;;;;;5073704;28;20382;-73
2021/11/16 07:53:19;;;;;;;;;;;6.70;99.90;;;;;;5073811;28;20039;-74
2021/11/16 07:56:04;;;;;;;26.95;21.58;;;6.70;99.90;;;;;;5073722;28;19908;-73
2021/11/16 07:58:35;;;;;;;25.75;21.45;;;6.70;99.90;;;;;;5073127;28;20051;-73
2021/11/16 08:01:08;;;;;;;29.73;23.25;;;6.70;99.90;;;;;;5073009;28;20084;-74
2021/11/16 08:03:46;;;;;;;30.17;23.65;;;6.70;99.90;;;;;;5073463;28;20032;-74
2021/11/16 08:06:20;;;;;;;26.17;22.70;;;6.80;99.90;;;;;;5059988;28;20041;-74
2021/11/16 08:11:19;;;;;;;27.73;23.80;;;6.70;99.90;;;;;;5072230;28;20043;-72
2021/11/16 08:13:54;;;;;;;28.92;24.05;;;6.70;99.90;;;;;;5063069;28;20025;-72
2021/11/16 08:16:22;;;;;;;30.45;23.85;;;6.80;99.90;;;;;;5064554;28;20025;-72
2021/11/16 08:18:53;;;;;;;26.60;23.75;;;6.90;99.90;;;;;;5063595;28;20044;-72
2021/11/16 08:21:19;;;;;;;27.08;24.08;;;7.00;99.90;;;;;;5064004;28;20032;-72
2021/11/16 08:23:56;;;;;;;26.08;21.85;;;7.20;99.90;;;;;;5064346;28;20020;-73
2021/11/16 08:26:24;;;;;;;26.52;22.60;;;7.30;99.90;;;;;;5061181;28;20052;-72
2021/11/16 08:28:52;;;;;;;33.60;24.60;;;7.30;99.90;;;;;;5065495;28;20045;-72
2021/11/16 08:31:20;;;;;;;36.22;24.75;;;7.40;99.90;;;;;;5062090;28;20523;-72
2021/11/16 08:33:51;;;;;;;25.50;22.27;;;7.40;99.90;;;;;;5059983;28;20036;-72
2021/11/16 08:36:18;;;;;;;32.25;25.02;;;7.40;99.90;;;;;;5053036;28;20029;-72
2021/11/16 08:38:45;;;;;;;32.58;24.20;;;7.20;99.90;;;;;;5060347;28;20043;-72
2021/11/16 08:41:29;;;;;;;29.10;24.75;;;7.10;99.90;;;;;;5062657;28;20037;-72
2021/11/16 08:44:16;;;;;;;36.38;25.15;;;6.90;99.90;;;;;;5064528;28;20028;-76
2021/11/16 08:46:45;;;;;;;30.02;23.23;;;6.90;99.90;;;;;;5067889;28;20040;-72
2021/11/16 08:49:34;;;;;;;30.45;24.45;;;7.10;99.90;;;;;;5058834;28;20036;-72
2021/11/16 08:52:08;;;;;;;28.25;23.85;;;7.20;99.90;;;;;;5058876;28;20036;-73
2021/11/16 08:54:35;;;;;;;28.52;23.08;;;7.30;99.90;;;;;;5059604;28;20033;-72
2021/11/16 08:57:15;;;;;;;29.42;24.58;;;7.40;99.90;;;;;;5060591;28;20390;-73
2021/11/16 08:59:41;;;;;;;29.13;23.73;;;7.30;99.90;;;;;;5044619;28;20045;-73
2021/11/16 09:02:08;;;;;;;44.25;25.90;;;7.30;99.90;;;;;;5059901;28;20040;-72
2021/11/16 09:04:38;;;;;;;27.90;24.92;;;7.20;99.90;;;;;;5060134;28;20028;-71
2021/11/16 09:07:31;;;;;;;28.37;25.43;;;7.30;99.90;;;;;;5060974;28;20029;-72
2021/11/16 09:10:10;;;;;;;31.63;25.60;;;7.40;99.90;;;;;;5062986;28;20275;-72
2021/11/16 09:12:43;;;;;;;31.50;24.58;;;7.30;99.90;;;;;;5060281;28;20405;-72
2021/11/16 09:15:17;;;;;;;33.00;25.40;;;7.20;99.90;;;;;;5060018;28;20029;-71
2021/11/16 09:17:44;;;;;;;26.73;23.83;;;7.20;99.90;;;;;;5054893;28;20029;-72
2021/11/16 09:20:23;;;;;;;35.63;24.98;;;7.20;99.90;;;;;;5051578;28;20037;-72
2021/11/16 09:22:52;;;;;;;30.92;24.80;;;7.10;99.90;;;;;;5044936;28;20029;-72
2021/11/16 09:25:37;;;;;;;28.23;24.80;;;7.10;99.90;;;;;;5051401;28;20021;-72
2021/11/16 09:28:36;;;;;;;27.88;23.23;;;7.10;99.90;;;;;;5055690;28;20048;-72
2021/11/16 09:31:24;;;;;;;31.23;24.70;;;7.10;99.90;;;;;;5061108;28;20032;-72
2021/11/16 09:33:53;;;;;;;25.85;22.55;;;7.10;99.90;;;;;;5054231;28;20025;-72
2021/11/16 09:36:25;;;;;;;29.38;25.20;;;7.10;99.90;;;;;;5056475;28;20033;-72
2021/11/16 09:38:57;;;;;;;33.90;25.17;;;7.10;99.90;;;;;;5065362;28;20466;-72
2021/11/16 09:41:36;;;;;;;32.55;25.85;;;7.10;99.90;;;;;;5068363;28;20036;-72
2021/11/16 09:44:16;;;;;;;29.10;24.23;;;7.10;99.90;;;;;;5038021;28;20037;-72
2021/11/16 09:46:57;;;;;;;27.00;24.13;;;7.10;99.90;;;;;;5043413;28;20049;-72
2021/11/16 09:49:31;;;;;;;29.17;26.00;;;7.10;99.90;;;;;;5051724;28;20033;-72
2021/11/16 09:52:05;;;;;;;28.58;24.27;;;7.10;99.90;;;;;;5033775;28;20283;-76
2021/11/16 09:54:47;;;;;;;27.70;24.80;;;7.10;99.90;;;;;;5054032;28;20040;-72
2021/11/16 09:57:14;;;;;;;27.83;24.95;;;7.20;99.90;;;;;;5051108;28;20048;-72
2021/11/16 09:59:44;;;;;;;26.13;23.48;;;7.30;99.90;;;;;;5052164;28;20040;-72
2021/11/16 10:02:26;;;;;;;30.88;24.90;;;7.30;99.90;;;;;;5054071;28;20044;-72
2021/11/16 10:05:01;;;;;;;28.27;25.33;;;7.30;99.90;;;;;;5062113;28;20041;-72
2021/11/16 10:07:27;;;;;;;28.30;25.23;;;7.40;99.90;;;;;;5060366;28;20024;-73
2021/11/16 10:09:54;;;;;;;38.70;24.45;;;7.30;99.90;;;;;;5062081;28;20033;-72
2021/11/16 10:12:23;;;;;;;30.13;25.70;;;7.20;99.90;;;;;;5058887;28;20025;-73
2021/11/16 10:14:51;;;;;;;27.20;24.27;;;7.20;99.90;;;;;;5057826;28;20037;-73
2021/11/16 10:17:19;;;;;;;34.30;25.92;;;7.20;99.90;;;;;;5055454;28;20044;-72
2021/11/16 10:19:46;;;;;;;35.85;26.65;;;7.20;99.90;;;;;;5051371;28;20029;-73
2021/11/16 10:22:14;;;;;;;36.15;26.27;;;7.20;99.90;;;;;;5061533;28;20045;-73
2021/11/16 10:24:43;;;;;;;35.78;27.15;;;7.10;99.90;;;;;;5039274;28;20029;-72
2021/11/16 10:27:32;;;;;;;35.22;26.55;;;7.20;99.90;;;;;;5050733;28;20032;-72
2021/11/16 10:30:07;;;;;;;32.85;28.85;;;7.10;99.90;;;;;;5051038;28;20052;-77
2021/11/16 10:32:34;;;;;;;34.83;27.95;;;7.10;99.90;;;;;;5051839;28;20459;-72
2021/11/16 10:35:15;;;;;;;37.08;28.88;;;7.20;99.90;;;;;;5056050;28;20033;-73
2021/11/16 10:37:52;;;;;;;35.58;27.30;;;7.20;99.90;;;;;;5058852;28;20040;-72
2021/11/16 10:40:21;;;;;;;33.25;29.70;;;7.20;99.90;;;;;;5050448;28;20021;-73
2021/11/16 10:42:50;;;;;;;31.98;27.85;;;7.20;99.90;;;;;;5051731;28;20029;-72
2021/11/16 10:45:21;;;;;;;34.30;26.42;;;7.20;99.90;;;;;;5051269;28;20040;-73
2021/11/16 10:47:48;;;;;;;36.22;28.20;;;7.20;99.90;;;;;;5051412;28;20037;-72
2021/11/16 10:50:20;;;;;;;35.17;27.58;;;7.20;99.90;;;;;;5053914;28;20490;-72
2021/11/16 10:53:05;;;;;;;40.42;29.20;;;7.10;99.90;;;;;;5055175;28;20029;-72
2021/11/16 10:55:41;;;;;;;35.85;29.02;;;7.10;99.90;;;;;;5054983;28;20324;-72
2021/11/16 10:58:14;;;;;;;32.75;28.83;;;7.20;99.90;;;;;;5054208;28;20049;-72
2021/11/16 11:00:45;;;;;;;31.23;27.80;;;7.10;99.90;;;;;;5037461;28;20462;-72
2021/11/16 11:03:17;;;;;;;42.22;29.83;;;7.10;99.90;;;;;;5054377;28;20048;-72
2021/11/16 11:05:47;;;;;;;38.38;29.83;;;7.20;99.90;;;;;;5054872;28;20040;-72
2021/11/16 11:08:33;;;;;;;43.88;29.17;;;7.10;99.90;;;;;;5054199;28;20500;-73
2021/11/16 11:11:01;;;;;;;34.97;30.40;;;7.10;99.90;;;;;;5055483;28;20029;-76
2021/11/16 11:13:29;;;;;;;36.60;30.42;;;7.10;99.90;;;;;;5064086;28;20024;-73
2021/11/16 11:15:57;;;;;;;35.50;30.17;;;7.00;99.90;;;;;;5048393;28;20029;-72
2021/11/16 11:18:33;;;;;;;38.95;30.77;;;7.00;99.90;;;;;;5056083;28;20044;-73
2021/11/16 11:21:01;;;;;;;38.65;31.17;;;7.00;99.90;;;;;;5072059;28;20475;-76
2021/11/16 11:23:44;;;;;;;36.88;30.02;;;7.00;99.90;;;;;;5054648;28;20037;-70
2021/11/16 11:26:28;;;;;;;40.63;31.25;;;7.00;99.90;;;;;;5053526;28;20067;-69
2021/11/16 11:29:13;;;;;;;33.15;29.70;;;6.90;99.90;;;;;;5054138;28;20056;-70
2021/11/16 11:31:39;;;;;;;31.73;26.85;;;6.90;99.90;;;;;;5053330;28;20390;-69
2021/11/16 11:34:06;;;;;;;39.78;31.50;;;6.90;99.90;;;;;;5053912;28;20035;-70
2021/11/16 11:36:32;;;;;;;37.13;32.17;;;6.90;99.90;;;;;;5036018;28;20029;-71
2021/11/16 11:38:58;;;;;;;44.10;32.38;;;6.90;99.90;;;;;;5067934;28;20043;-72
2021/11/16 11:41:24;;;;;;;42.08;35.60;;;6.90;99.90;;;;;;5054828;28;20041;-71
2021/11/16 11:44:14;;;;;;;39.60;31.67;;;6.80;99.90;;;;;;5054263;28;20409;-71
2021/11/16 11:46:50;;;;;;;47.92;33.47;;;6.80;99.90;;;;;;5053796;28;20040;-71
2021/11/16 11:49:17;;;;;;;42.13;34.75;;;6.80;99.90;;;;;;5053069;28;20482;-71
2021/11/16 11:51:44;;;;;;;35.30;31.52;;;6.80;99.90;;;;;;5056780;28;20043;-72
2021/11/16 11:54:11;;;;;;;46.85;33.78;;;6.80;99.90;;;;;;5055774;28;20573;-71
2021/11/16 11:56:38;;;;;;;35.15;31.45;;;6.80;99.90;;;;;;5055537;28;20032;-73
2021/11/16 11:59:05;;;;;;;36.00;29.48;;;6.80;99.90;;;;;;5063072;28;20052;-73
2021/11/16 12:01:31;;;;;;;33.80;29.63;;;6.80;99.90;;;;;;5055945;28;20033;-73
2021/11/16 12:03:59;;;;;;;36.63;28.67;;;6.90;99.90;;;;;;5046488;28;20040;-74
2021/11/16 12:06:29;;;;;;;34.58;29.08;;;6.90;99.90;;;;;;5067041;28;20029;-73
2021/11/16 12:08:58;;;;;;;36.22;28.77;;;7.00;99.90;;;;;;5042424;28;20045;-71
2021/11/16 12:11:25;;;;;;;49.28;28.77;;;7.10;99.90;;;;;;5053125;28;20385;-70
2021/11/16 12:13:55;;;;;;;31.35;27.25;;;7.10;99.90;;;;;;5048168;28;20044;-70
2021/11/16 12:16:49;;;;;;;31.52;27.52;;;7.10;99.90;;;;;;5060147;28;20025;-71
2021/11/16 12:19:15;;;;;;;31.35;26.95;;;7.10;99.90;;;;;;5052682;28;20033;-71
2021/11/16 12:21:45;;;;;;;27.90;24.90;;;7.10;99.90;;;;;;5053387;28;20390;-70
2021/11/16 12:24:31;;;;;;;29.30;25.92;;;7.10;99.90;;;;;;5052680;28;20528;-70
2021/11/16 12:27:07;;;;;;;28.85;23.17;;;7.10;99.90;;;;;;5052873;28;20033;-70
2021/11/16 12:29:39;;;;;;;29.65;25.27;;;7.10;99.90;;;;;;5059960;28;20091;-70
2021/11/16 12:32:12;;;;;;;28.38;25.20;;;7.00;99.90;;;;;;5052593;28;20044;-73
2021/11/16 12:34:42;;;;;;;28.65;24.85;;;7.00;99.90;;;;;;5052853;28;20457;-70
2021/11/16 12:37:11;;;;;;;28.58;24.33;;;7.10;99.90;;;;;;5052366;28;20029;-70
2021/11/16 12:40:12;;;;;;;33.28;25.15;;;7.10;99.90;;;;;;5051446;28;20033;-70
2021/11/16 12:42:40;;;;;;;33.15;25.83;;;7.10;99.90;;;;;;5030585;28;20037;-70
2021/11/16 12:45:10;;;;;;;32.20;26.25;;;7.00;99.90;;;;;;5052199;28;20037;-71
2021/11/16 12:47:57;;;;;;;30.90;27.43;;;7.00;99.90;;;;;;5052945;28;20044;-70
2021/11/16 12:50:23;;;;;;;31.88;28.33;;;6.90;99.90;;;;;;5063947;28;20040;-70
2021/11/16 12:52:52;;;;;;;38.33;34.38;;;6.90;99.90;;;;;;5054685;28;20431;-71
2021/11/16 12:55:28;;;;;;;33.75;27.58;;;6.80;99.90;;;;;;5051923;28;20036;-70
2021/11/16 12:58:33;;;;;;;41.30;31.67;;;6.80;99.90;;;;;;5062321;28;20359;-70
2021/11/16 13:01:00;;;;;;;40.17;29.63;;;6.90;99.90;;;;;;4982444;28;20053;-69
2021/11/16 13:03:57;;;;;;;35.80;29.30;;;6.80;99.90;;;;;;5044179;28;20041;-70
2021/11/16 13:06:24;;;;;;;31.40;28.15;;;6.80;99.90;;;;;;5059878;28;20036;-70
2021/11/16 13:08:50;;;;;;;33.90;29.27;;;6.80;99.90;;;;;;5062925;28;20035;-69
2021/11/16 13:11:38;;;;;;;36.08;29.27;;;6.80;99.90;;;;;;5065112;28;20029;-70
2021/11/16 13:14:05;;;;;;;37.00;29.60;;;6.80;99.90;;;;;;5057435;28;20028;-70
2021/11/16 13:16:31;;;;;;;39.67;35.17;;;6.80;99.90;;;;;;5069046;28;20051;-70